DEVICE NETWORK
Gateway Status
13 ESP · realtime ~1s · history 60s
Weather
WS-MOD-01
OFFLINE
Actuator
ACT-MOD-01
OFFLINE
Mainboard L3
MB-L3-01
ONLINE
Mainboard L5
MB-L5-01
OFFLINE
Remote AC
AC-REMOTE-01
OFFLINE
PZEM L3-01
PWR-L3-01
OFFLINE
PZEM L3-02
PWR-L3-02
OFFLINE
PZEM L3-03
PWR-L3-03
OFFLINE
PZEM L3-04
PWR-L3-04
OFFLINE
PZEM L5-01
PWR-L5-01
OFFLINE
PZEM L5-02
PWR-L5-02
OFFLINE
PZEM L5-03
PWR-L5-03
OFFLINE
PZEM L5-04
PWR-L5-04
OFFLINE
REPORT FILTER
DATABASE HISTORY
Periode & Sensor
REPORT RESULT
Data Sensor
28/08/2026 — 03/09/2026
EXPORT CSV
| NO | TANGGAL | WAKTU | DEVICE | CHANNEL | SENSOR | VALUE | UNIT |
|---|---|---|---|---|---|---|---|
| 11001 | 02/09/2026 | 14:55:13 | MB-L5-01Mainboard Lantai 5 | L5-AI-05 | Analog Input 5 | 3.05 | V |
| 11002 | 02/09/2026 | 14:55:13 | MB-L5-01Mainboard Lantai 5 | L5-SHT-03-T | SHT20 3 Temperature | 32.20 | °C |
| 11003 | 02/09/2026 | 14:55:13 | MB-L5-01Mainboard Lantai 5 | L5-SHT-02-T | SHT20 2 Temperature | 32.20 | °C |
| 11004 | 02/09/2026 | 14:55:13 | MB-L5-01Mainboard Lantai 5 | L5-SHT-03-RH | SHT20 3 Humidity | 49.00 | %RH |
| 11005 | 02/09/2026 | 14:55:13 | MB-L5-01Mainboard Lantai 5 | L5-AI-04 | Analog Input 4 | 3.05 | V |
| 11006 | 02/09/2026 | 14:55:13 | MB-L5-01Mainboard Lantai 5 | L5-AI-03 | Analog Input 3 | 3.05 | V |
| 11007 | 02/09/2026 | 14:55:13 | MB-L5-01Mainboard Lantai 5 | L5-RAD-01 | Radiation 1 | 1.00 | W/m² |
| 11008 | 02/09/2026 | 14:55:13 | MB-L5-01Mainboard Lantai 5 | L5-AI-02 | Analog Input 2 | 3.05 | V |
| 11009 | 02/09/2026 | 14:55:13 | MB-L5-01Mainboard Lantai 5 | L5-AI-01 | Analog Input 1 | 3.05 | V |
| 11010 | 02/09/2026 | 14:55:13 | MB-L5-01Mainboard Lantai 5 | L5-SHT-01-RH | SHT20 1 Humidity | 48.40 | %RH |
| 11011 | 02/09/2026 | 14:55:13 | MB-L5-01Mainboard Lantai 5 | L5-BGT-03 | Black Globe Temperature 3 | 29.70 | °C |
| 11012 | 02/09/2026 | 14:55:13 | MB-L5-01Mainboard Lantai 5 | L5-LUX-01 | Illuminance / LUX 1 | 214.00 | lux |
| 11013 | 02/09/2026 | 14:55:13 | MB-L5-01Mainboard Lantai 5 | L5-LUX-03 | Illuminance / LUX 3 | 156.40 | lux |
| 11014 | 02/09/2026 | 14:55:13 | MB-L5-01Mainboard Lantai 5 | L5-BGT-02 | Black Globe Temperature 2 | 29.70 | °C |
| 11015 | 02/09/2026 | 14:55:13 | MB-L5-01Mainboard Lantai 5 | L5-BGT-01 | Black Globe Temperature 1 | 29.70 | °C |
| 11016 | 02/09/2026 | 14:55:13 | MB-L5-01Mainboard Lantai 5 | L5-HFT-02 | Heat Flow Temperature 2 | 30.10 | °C |
| 11017 | 02/09/2026 | 14:55:13 | MB-L5-01Mainboard Lantai 5 | L5-HFT-01 | Heat Flow Temperature 1 | 30.20 | °C |
| 11018 | 02/09/2026 | 14:55:13 | MB-L5-01Mainboard Lantai 5 | L5-LUX-06 | Illuminance / LUX 6 | 44.60 | lux |
| 11019 | 02/09/2026 | 14:55:13 | MB-L5-01Mainboard Lantai 5 | L5-ST-02 | Surface Temperature 2 | 30.50 | °C |
| 11020 | 02/09/2026 | 14:55:13 | MB-L5-01Mainboard Lantai 5 | L5-LUX-02 | Illuminance / LUX 2 | 117.70 | lux |
| 11021 | 02/09/2026 | 14:55:13 | MB-L5-01Mainboard Lantai 5 | L5-ST-01 | Surface Temperature 1 | 30.20 | °C |
| 11022 | 02/09/2026 | 14:55:13 | MB-L5-01Mainboard Lantai 5 | L5-SHT-01-T | SHT20 1 Temperature | 32.40 | °C |
| 11023 | 02/09/2026 | 14:55:13 | MB-L5-01Mainboard Lantai 5 | L5-RAD-02 | Radiation 2 | 1.00 | W/m² |
| 11024 | 02/09/2026 | 14:55:13 | MB-L5-01Mainboard Lantai 5 | L5-LUX-05 | Illuminance / LUX 5 | 406.00 | lux |
| 11025 | 02/09/2026 | 14:55:12 | MB-L3-01Mainboard Lantai 3 | L3-SHT-02-T | SHT20 2 Temperature | 32.10 | °C |
| 11026 | 02/09/2026 | 14:55:12 | MB-L5-01Mainboard Lantai 5 | L5-AI-02 | Analog Input 2 | 3.05 | V |
| 11027 | 02/09/2026 | 14:55:12 | MB-L3-01Mainboard Lantai 3 | L3-BGT-03 | Black Globe Temperature 3 | 29.20 | °C |
| 11028 | 02/09/2026 | 14:55:12 | MB-L3-01Mainboard Lantai 3 | L3-LUX-05 | Illuminance / LUX 5 | 43.00 | lux |
| 11029 | 02/09/2026 | 14:55:12 | MB-L3-01Mainboard Lantai 3 | L3-ST-02 | Surface Temperature 2 | 30.10 | °C |
| 11030 | 02/09/2026 | 14:55:12 | MB-L5-01Mainboard Lantai 5 | L5-AI-01 | Analog Input 1 | 3.05 | V |
| 11031 | 02/09/2026 | 14:55:12 | MB-L3-01Mainboard Lantai 3 | L3-AI-06 | Analog Input 6 | 3.12 | V |
| 11032 | 02/09/2026 | 14:55:12 | MB-L3-01Mainboard Lantai 3 | L3-LUX-06 | Illuminance / LUX 6 | 34.90 | lux |
| 11033 | 02/09/2026 | 14:55:12 | MB-L3-01Mainboard Lantai 3 | L3-AI-01 | Analog Input 1 | 3.12 | V |
| 11034 | 02/09/2026 | 14:55:12 | MB-L5-01Mainboard Lantai 5 | L5-SHT-01-RH | SHT20 1 Humidity | 48.50 | %RH |
| 11035 | 02/09/2026 | 14:55:12 | MB-L5-01Mainboard Lantai 5 | L5-BGT-03 | Black Globe Temperature 3 | 29.80 | °C |
| 11036 | 02/09/2026 | 14:55:12 | MB-L3-01Mainboard Lantai 3 | L3-HFT-01 | Heat Flow Temperature 1 | 29.70 | °C |
| 11037 | 02/09/2026 | 14:55:12 | MB-L5-01Mainboard Lantai 5 | L5-LUX-01 | Illuminance / LUX 1 | 228.00 | lux |
| 11038 | 02/09/2026 | 14:55:12 | MB-L5-01Mainboard Lantai 5 | L5-LUX-03 | Illuminance / LUX 3 | 172.60 | lux |
| 11039 | 02/09/2026 | 14:55:12 | MB-L5-01Mainboard Lantai 5 | L5-BGT-02 | Black Globe Temperature 2 | 29.70 | °C |
| 11040 | 02/09/2026 | 14:55:12 | MB-L3-01Mainboard Lantai 3 | L3-LUX-02 | Illuminance / LUX 2 | 37.30 | lux |
| 11041 | 02/09/2026 | 14:55:12 | MB-L5-01Mainboard Lantai 5 | L5-BGT-01 | Black Globe Temperature 1 | 29.70 | °C |
| 11042 | 02/09/2026 | 14:55:12 | MB-L3-01Mainboard Lantai 3 | L3-AI-02 | Analog Input 2 | 3.12 | V |
| 11043 | 02/09/2026 | 14:55:12 | MB-L3-01Mainboard Lantai 3 | L3-LUX-04 | Illuminance / LUX 4 | 73.10 | lux |
| 11044 | 02/09/2026 | 14:55:12 | MB-L5-01Mainboard Lantai 5 | L5-HFT-02 | Heat Flow Temperature 2 | 29.90 | °C |
| 11045 | 02/09/2026 | 14:55:12 | MB-L3-01Mainboard Lantai 3 | L3-HFT-02 | Heat Flow Temperature 2 | 29.30 | °C |
| 11046 | 02/09/2026 | 14:55:12 | MB-L3-01Mainboard Lantai 3 | L3-SHT-01-T | SHT20 1 Temperature | 32.10 | °C |
| 11047 | 02/09/2026 | 14:55:12 | MB-L5-01Mainboard Lantai 5 | L5-HFT-01 | Heat Flow Temperature 1 | 30.10 | °C |
| 11048 | 02/09/2026 | 14:55:12 | MB-L5-01Mainboard Lantai 5 | L5-LUX-06 | Illuminance / LUX 6 | 95.40 | lux |
| 11049 | 02/09/2026 | 14:55:12 | MB-L5-01Mainboard Lantai 5 | L5-ST-02 | Surface Temperature 2 | 30.50 | °C |
| 11050 | 02/09/2026 | 14:55:12 | MB-L3-01Mainboard Lantai 3 | L3-LUX-03 | Illuminance / LUX 3 | 105.10 | lux |
| 11051 | 02/09/2026 | 14:55:12 | MB-L3-01Mainboard Lantai 3 | L3-SHT-01-RH | SHT20 1 Humidity | 48.70 | %RH |
| 11052 | 02/09/2026 | 14:55:12 | MB-L3-01Mainboard Lantai 3 | L3-AI-03 | Analog Input 3 | 3.12 | V |
| 11053 | 02/09/2026 | 14:55:12 | MB-L5-01Mainboard Lantai 5 | L5-LUX-02 | Illuminance / LUX 2 | 117.70 | lux |
| 11054 | 02/09/2026 | 14:55:12 | MB-L5-01Mainboard Lantai 5 | L5-ST-01 | Surface Temperature 1 | 30.20 | °C |
| 11055 | 02/09/2026 | 14:55:12 | MB-L5-01Mainboard Lantai 5 | L5-SHT-01-T | SHT20 1 Temperature | 32.40 | °C |
| 11056 | 02/09/2026 | 14:55:12 | MB-L3-01Mainboard Lantai 3 | L3-SHT-03-RH | SHT20 3 Humidity | 49.30 | %RH |
| 11057 | 02/09/2026 | 14:55:12 | MB-L3-01Mainboard Lantai 3 | L3-SHT-02-RH | SHT20 2 Humidity | 48.50 | %RH |
| 11058 | 02/09/2026 | 14:55:12 | MB-L3-01Mainboard Lantai 3 | L3-BGT-01 | Black Globe Temperature 1 | 29.80 | °C |
| 11059 | 02/09/2026 | 14:55:12 | MB-L5-01Mainboard Lantai 5 | L5-RAD-02 | Radiation 2 | 1.00 | W/m² |
| 11060 | 02/09/2026 | 14:55:12 | MB-L3-01Mainboard Lantai 3 | L3-LUX-01 | Illuminance / LUX 1 | 23.70 | lux |
| 11061 | 02/09/2026 | 14:55:12 | MB-L5-01Mainboard Lantai 5 | L5-LUX-05 | Illuminance / LUX 5 | 396.10 | lux |
| 11062 | 02/09/2026 | 14:55:12 | MB-L3-01Mainboard Lantai 3 | L3-RAD-02 | Radiation 2 | 1.00 | W/m² |
| 11063 | 02/09/2026 | 14:55:12 | MB-L3-01Mainboard Lantai 3 | L3-SHT-03-T | SHT20 3 Temperature | 31.80 | °C |
| 11064 | 02/09/2026 | 14:55:12 | MB-L5-01Mainboard Lantai 5 | L5-AI-06 | Analog Input 6 | 3.05 | V |
| 11065 | 02/09/2026 | 14:55:12 | MB-L5-01Mainboard Lantai 5 | L5-SHT-02-RH | SHT20 2 Humidity | 48.30 | %RH |
| 11066 | 02/09/2026 | 14:55:12 | MB-L3-01Mainboard Lantai 3 | L3-AI-04 | Analog Input 4 | 3.12 | V |
| 11067 | 02/09/2026 | 14:55:12 | MB-L5-01Mainboard Lantai 5 | L5-LUX-04 | Illuminance / LUX 4 | 222.80 | lux |
| 11068 | 02/09/2026 | 14:55:12 | MB-L3-01Mainboard Lantai 3 | L3-BGT-02 | Black Globe Temperature 2 | 29.80 | °C |
| 11069 | 02/09/2026 | 14:55:12 | MB-L3-01Mainboard Lantai 3 | L3-RAD-01 | Radiation 1 | 1.00 | W/m² |
| 11070 | 02/09/2026 | 14:55:12 | MB-L5-01Mainboard Lantai 5 | L5-AI-05 | Analog Input 5 | 3.05 | V |
| 11071 | 02/09/2026 | 14:55:12 | MB-L5-01Mainboard Lantai 5 | L5-SHT-03-T | SHT20 3 Temperature | 32.10 | °C |
| 11072 | 02/09/2026 | 14:55:12 | MB-L5-01Mainboard Lantai 5 | L5-SHT-02-T | SHT20 2 Temperature | 32.20 | °C |
| 11073 | 02/09/2026 | 14:55:12 | MB-L5-01Mainboard Lantai 5 | L5-SHT-03-RH | SHT20 3 Humidity | 48.90 | %RH |
| 11074 | 02/09/2026 | 14:55:12 | MB-L5-01Mainboard Lantai 5 | L5-AI-04 | Analog Input 4 | 3.05 | V |
| 11075 | 02/09/2026 | 14:55:12 | MB-L3-01Mainboard Lantai 3 | L3-ST-01 | Surface Temperature 1 | 30.00 | °C |
| 11076 | 02/09/2026 | 14:55:12 | MB-L3-01Mainboard Lantai 3 | L3-AI-05 | Analog Input 5 | 3.12 | V |
| 11077 | 02/09/2026 | 14:55:12 | MB-L5-01Mainboard Lantai 5 | L5-RAD-01 | Radiation 1 | 1.00 | W/m² |
| 11078 | 02/09/2026 | 14:55:12 | MB-L5-01Mainboard Lantai 5 | L5-AI-03 | Analog Input 3 | 3.05 | V |
| 11079 | 02/09/2026 | 14:55:10 | MB-L3-01Mainboard Lantai 3 | L3-AI-01 | Analog Input 1 | 3.12 | V |
| 11080 | 02/09/2026 | 14:55:10 | MB-L5-01Mainboard Lantai 5 | L5-SHT-01-RH | SHT20 1 Humidity | 48.40 | %RH |
| 11081 | 02/09/2026 | 14:55:10 | MB-L5-01Mainboard Lantai 5 | L5-BGT-03 | Black Globe Temperature 3 | 29.70 | °C |
| 11082 | 02/09/2026 | 14:55:10 | MB-L3-01Mainboard Lantai 3 | L3-HFT-01 | Heat Flow Temperature 1 | 29.80 | °C |
| 11083 | 02/09/2026 | 14:55:10 | MB-L5-01Mainboard Lantai 5 | L5-LUX-01 | Illuminance / LUX 1 | 228.00 | lux |
| 11084 | 02/09/2026 | 14:55:10 | MB-L5-01Mainboard Lantai 5 | L5-LUX-03 | Illuminance / LUX 3 | 158.60 | lux |
| 11085 | 02/09/2026 | 14:55:10 | MB-L5-01Mainboard Lantai 5 | L5-BGT-02 | Black Globe Temperature 2 | 29.60 | °C |
| 11086 | 02/09/2026 | 14:55:10 | MB-L3-01Mainboard Lantai 3 | L3-LUX-02 | Illuminance / LUX 2 | 37.70 | lux |
| 11087 | 02/09/2026 | 14:55:10 | MB-L5-01Mainboard Lantai 5 | L5-BGT-01 | Black Globe Temperature 1 | 29.60 | °C |
| 11088 | 02/09/2026 | 14:55:10 | MB-L3-01Mainboard Lantai 3 | L3-AI-02 | Analog Input 2 | 3.12 | V |
| 11089 | 02/09/2026 | 14:55:10 | MB-L3-01Mainboard Lantai 3 | L3-LUX-04 | Illuminance / LUX 4 | 73.10 | lux |
| 11090 | 02/09/2026 | 14:55:10 | MB-L5-01Mainboard Lantai 5 | L5-HFT-02 | Heat Flow Temperature 2 | 30.10 | °C |
| 11091 | 02/09/2026 | 14:55:10 | MB-L3-01Mainboard Lantai 3 | L3-HFT-02 | Heat Flow Temperature 2 | 29.30 | °C |
| 11092 | 02/09/2026 | 14:55:10 | MB-L3-01Mainboard Lantai 3 | L3-SHT-01-T | SHT20 1 Temperature | 32.10 | °C |
| 11093 | 02/09/2026 | 14:55:10 | MB-L5-01Mainboard Lantai 5 | L5-HFT-01 | Heat Flow Temperature 1 | 30.10 | °C |
| 11094 | 02/09/2026 | 14:55:10 | MB-L5-01Mainboard Lantai 5 | L5-LUX-06 | Illuminance / LUX 6 | 134.90 | lux |
| 11095 | 02/09/2026 | 14:55:10 | MB-L5-01Mainboard Lantai 5 | L5-ST-02 | Surface Temperature 2 | 30.40 | °C |
| 11096 | 02/09/2026 | 14:55:10 | MB-L3-01Mainboard Lantai 3 | L3-LUX-03 | Illuminance / LUX 3 | 116.30 | lux |
| 11097 | 02/09/2026 | 14:55:10 | MB-L3-01Mainboard Lantai 3 | L3-SHT-01-RH | SHT20 1 Humidity | 48.60 | %RH |
| 11098 | 02/09/2026 | 14:55:10 | MB-L3-01Mainboard Lantai 3 | L3-AI-03 | Analog Input 3 | 3.12 | V |
| 11099 | 02/09/2026 | 14:55:10 | MB-L5-01Mainboard Lantai 5 | L5-LUX-02 | Illuminance / LUX 2 | 124.20 | lux |
| 11100 | 02/09/2026 | 14:55:10 | MB-L5-01Mainboard Lantai 5 | L5-ST-01 | Surface Temperature 1 | 30.10 | °C |
Menampilkan maksimal 100 data per halaman